createdAt,value
2022-08-27T00:00:23.435Z,70.83
2022-08-27T00:05:25.912Z,70.90
2022-08-27T00:10:28.728Z,71.27
2022-08-27T00:15:31.625Z,71.46
2022-08-27T00:20:34.546Z,71.11
2022-08-27T00:25:36.978Z,71.36
2022-08-27T00:30:40.535Z,70.95
2022-08-27T00:35:42.908Z,71.35
2022-08-27T00:40:45.808Z,71.25
2022-08-27T00:45:48.401Z,71.19
2022-08-27T00:50:55.201Z,70.59
2022-08-27T00:56:10.609Z,70.93
2022-08-27T01:01:17.227Z,70.71
2022-08-27T01:06:22.669Z,70.96
2022-08-27T01:11:25.797Z,70.65
2022-08-27T01:16:34.356Z,71.08
2022-08-27T01:21:50.270Z,70.73
2022-08-27T01:26:53.019Z,70.94
2022-08-27T01:32:00.823Z,71.04
2022-08-27T01:37:04.203Z,71.15
2022-08-27T01:42:14.686Z,71.49
2022-08-27T01:47:19.512Z,71.25
2022-08-27T01:52:24.079Z,71.33
2022-08-27T01:57:26.981Z,71.10
2022-08-27T02:02:29.472Z,70.99
2022-08-27T02:07:32.085Z,71.48
2022-08-27T02:12:34.646Z,71.02
2022-08-27T02:17:37.073Z,71.44
2022-08-27T02:22:39.631Z,71.92
2022-08-27T02:27:46.071Z,71.77
2022-08-27T02:32:48.845Z,71.61
2022-08-27T02:37:52.302Z,71.49
2022-08-27T02:42:54.758Z,71.70
2022-08-27T02:47:57.410Z,71.69
2022-08-27T02:53:04.160Z,71.35
2022-08-27T02:58:06.869Z,71.90
2022-08-27T03:03:11.227Z,71.64
2022-08-27T03:08:13.863Z,71.86
2022-08-27T03:13:16.360Z,71.61
2022-08-27T03:18:18.978Z,71.11
2022-08-27T03:23:25.320Z,71.38
2022-08-27T03:28:30.748Z,71.16
2022-08-27T03:33:36.927Z,71.84
2022-08-27T03:38:39.581Z,72.02
2022-08-27T03:43:42.306Z,72.39
2022-08-27T03:48:44.823Z,72.47
2022-08-27T03:53:47.732Z,72.68
2022-08-27T03:58:50.541Z,72.38
2022-08-27T04:03:53.040Z,72.80
2022-08-27T04:08:55.653Z,72.15
2022-08-27T04:13:58.098Z,72.06
2022-08-27T04:19:01.081Z,72.37
2022-08-27T04:24:03.677Z,72.44
2022-08-27T04:29:06.016Z,72.18
2022-08-27T04:34:08.542Z,71.98
2022-08-27T04:39:11.002Z,71.73
2022-08-27T04:44:13.391Z,71.64
2022-08-27T04:49:16.402Z,71.73
2022-08-27T04:54:26.000Z,71.54
2022-08-27T04:59:37.062Z,71.20
2022-08-27T05:04:41.296Z,71.66
2022-08-27T05:09:43.711Z,71.17
2022-08-27T05:14:46.154Z,71.45
2022-08-27T05:19:49.984Z,71.00
2022-08-27T05:24:52.504Z,70.98
2022-08-27T05:29:55.963Z,70.81
2022-08-27T05:34:58.433Z,70.68
2022-08-27T05:40:02.071Z,70.43
2022-08-27T05:45:05.077Z,70.00
2022-08-27T05:50:08.008Z,69.67
2022-08-27T05:55:10.525Z,69.65
2022-08-27T06:00:33.655Z,68.94
2022-08-27T06:05:36.112Z,68.54
2022-08-27T06:10:41.555Z,68.16
2022-08-27T06:15:44.160Z,67.62
2022-08-27T06:20:46.668Z,67.42
2022-08-27T06:25:49.857Z,67.46
2022-08-27T06:30:52.676Z,67.04
2022-08-27T06:35:55.121Z,66.65
2022-08-27T06:40:57.795Z,66.20
2022-08-27T06:46:04.267Z,66.09
2022-08-27T06:51:14.007Z,65.93
2022-08-27T06:56:21.050Z,65.48
2022-08-27T07:01:27.667Z,65.10
2022-08-27T07:06:36.551Z,65.28
2022-08-27T07:11:39.441Z,65.22
2022-08-27T07:16:42.574Z,64.89
2022-08-27T07:21:57.629Z,64.56
2022-08-27T07:27:00.311Z,64.13
2022-08-27T07:32:03.417Z,63.44
2022-08-27T07:37:08.483Z,63.14
2022-08-27T07:42:37.515Z,62.58
2022-08-27T07:47:40.169Z,62.34
2022-08-27T07:52:44.589Z,62.31
2022-08-27T07:57:48.915Z,61.59
2022-08-27T08:02:51.694Z,61.10
2022-08-27T08:07:54.200Z,60.68
2022-08-27T08:13:00.317Z,60.67
2022-08-27T08:18:03.073Z,59.75
2022-08-27T08:23:05.453Z,59.25
2022-08-27T08:28:12.461Z,58.96
2022-08-27T08:33:15.123Z,58.44
2022-08-27T08:38:19.591Z,57.87
2022-08-27T08:43:34.952Z,57.25
2022-08-27T08:48:41.955Z,56.45
2022-08-27T08:53:55.288Z,55.96
2022-08-27T08:59:09.378Z,56.12
2022-08-27T09:04:13.442Z,54.79
2022-08-27T09:09:26.592Z,53.96
2022-08-27T09:14:38.184Z,53.76
2022-08-27T09:19:41.638Z,52.65
2022-08-27T09:25:05.915Z,50.72
2022-08-27T09:30:30.569Z,50.20
2022-08-27T09:35:46.425Z,49.60
2022-08-27T09:40:52.925Z,49.29
2022-08-27T09:45:58.608Z,49.19
2022-08-27T09:51:03.829Z,48.41
2022-08-27T09:56:12.407Z,47.94
2022-08-27T10:01:24.902Z,48.00
2022-08-27T10:06:29.627Z,47.48
2022-08-27T10:11:45.376Z,46.86
2022-08-27T10:16:53.518Z,45.55
2022-08-27T10:22:00.240Z,45.08
2022-08-27T10:27:13.908Z,45.32
2022-08-27T10:32:52.337Z,44.88
2022-08-27T10:38:20.160Z,44.06
2022-08-27T10:43:37.433Z,43.39
2022-08-27T10:48:45.298Z,42.24
2022-08-27T10:54:02.298Z,41.76
2022-08-27T10:59:07.922Z,41.52
2022-08-27T11:04:28.648Z,40.56
2022-08-27T11:09:59.484Z,40.30
2022-08-27T11:15:12.708Z,39.44
2022-08-27T11:20:54.368Z,39.30
2022-08-27T11:26:02.453Z,38.91
2022-08-27T11:31:25.973Z,38.36
2022-08-27T11:36:31.194Z,37.66
2022-08-27T11:42:01.655Z,37.60
2022-08-27T11:47:26.532Z,37.59
2022-08-27T11:52:38.104Z,36.33
2022-08-27T11:57:40.903Z,36.21
2022-08-27T12:02:44.479Z,36.21
2022-08-27T12:07:51.352Z,35.91
2022-08-27T12:13:00.719Z,35.57
2022-08-27T12:18:28.100Z,34.68
2022-08-27T12:23:59.557Z,34.46
2022-08-27T12:29:39.392Z,34.07
2022-08-27T12:35:00.608Z,34.50
2022-08-27T12:40:13.290Z,33.73
2022-08-27T12:45:25.341Z,33.63
2022-08-27T12:50:34.028Z,33.80
2022-08-27T12:55:45.413Z,32.89
2022-08-27T13:01:10.097Z,32.72
2022-08-27T13:06:37.237Z,32.23
2022-08-27T13:11:56.484Z,32.27
2022-08-27T13:17:04.984Z,32.29
2022-08-27T13:22:08.509Z,31.63
2022-08-27T13:27:11.098Z,32.04
2022-08-27T13:32:16.077Z,31.87
2022-08-27T13:37:38.390Z,31.42
2022-08-27T13:42:46.497Z,30.65
2022-08-27T13:47:50.520Z,30.35
2022-08-27T13:53:23.162Z,30.25
2022-08-27T13:58:31.548Z,30.79
2022-08-27T14:03:37.277Z,30.81
2022-08-27T14:08:40.619Z,30.71
2022-08-27T14:13:51.170Z,30.92
2022-08-27T14:19:07.407Z,31.15
2022-08-27T14:24:09.988Z,30.82
2022-08-27T14:29:12.610Z,30.41
2022-08-27T14:34:15.490Z,29.78
2022-08-27T14:39:18.074Z,29.15
2022-08-27T14:44:24.351Z,28.37
2022-08-27T14:49:35.440Z,27.38
2022-08-27T14:54:39.438Z,26.79
2022-08-27T14:59:42.099Z,26.23
2022-08-27T15:04:47.832Z,26.00
2022-08-27T15:09:50.916Z,25.35
2022-08-27T15:14:53.719Z,24.63
2022-08-27T15:19:56.270Z,24.26
2022-08-27T15:24:59.447Z,23.96
2022-08-27T15:30:02.161Z,23.27
2022-08-27T15:35:10.400Z,23.12
2022-08-27T15:40:16.176Z,23.15
2022-08-27T15:45:18.797Z,23.63
2022-08-27T15:50:21.718Z,23.67
2022-08-27T15:55:27.575Z,24.41
2022-08-27T16:00:34.349Z,25.36
2022-08-27T16:05:37.710Z,27.06
2022-08-27T16:10:40.139Z,28.51
2022-08-27T16:15:43.136Z,29.10
2022-08-27T16:20:46.159Z,30.37
2022-08-27T16:25:49.435Z,30.53
2022-08-27T16:31:01.300Z,31.01
2022-08-27T16:36:04.183Z,31.51
2022-08-27T16:41:08.444Z,32.44
2022-08-27T16:46:11.225Z,33.08
2022-08-27T16:51:36.771Z,33.35
2022-08-27T16:56:40.685Z,33.97
2022-08-27T17:01:44.194Z,34.80
2022-08-27T17:06:46.833Z,35.44
2022-08-27T17:11:57.421Z,35.99
2022-08-27T17:17:00.038Z,36.29
2022-08-27T17:22:04.106Z,37.07
2022-08-27T17:27:06.849Z,37.62
2022-08-27T17:32:10.048Z,38.04
2022-08-27T17:37:12.493Z,38.54
2022-08-27T17:42:15.244Z,38.40
2022-08-27T17:47:17.793Z,39.12
2022-08-27T17:52:21.256Z,38.98
2022-08-27T17:57:40.374Z,39.01
2022-08-27T18:02:49.487Z,39.34
2022-08-27T18:07:51.776Z,38.86
2022-08-27T18:12:56.083Z,39.91
2022-08-27T18:17:59.754Z,40.58
2022-08-27T18:23:03.579Z,41.10
2022-08-27T18:28:09.569Z,41.59
2022-08-27T18:33:12.632Z,42.33
2022-08-27T18:38:19.606Z,43.14
2022-08-27T18:43:25.844Z,43.19
2022-08-27T18:48:28.746Z,44.73
2022-08-27T18:53:34.440Z,44.93
2022-08-27T18:58:39.278Z,45.29
2022-08-27T19:03:51.262Z,45.96
2022-08-27T19:08:57.279Z,45.89
2022-08-27T19:14:03.283Z,46.41
2022-08-27T19:19:06.774Z,46.96
2022-08-27T19:24:09.977Z,46.66
2022-08-27T19:29:12.869Z,46.71
2022-08-27T19:34:15.547Z,47.27
2022-08-27T19:39:17.995Z,47.67
2022-08-27T19:44:21.665Z,47.45
2022-08-27T19:49:24.998Z,47.18
2022-08-27T19:54:32.603Z,47.27
2022-08-27T19:59:36.272Z,47.38
2022-08-27T20:04:55.826Z,47.84
2022-08-27T20:10:08.068Z,47.92
2022-08-27T20:15:11.811Z,48.25
2022-08-27T20:20:17.353Z,47.89
2022-08-27T20:25:20.115Z,47.84
2022-08-27T20:30:42.707Z,47.72
2022-08-27T20:35:51.250Z,48.09
2022-08-27T20:40:53.815Z,48.93
2022-08-27T20:45:56.769Z,49.18
2022-08-27T20:50:59.815Z,49.66
2022-08-27T20:56:02.301Z,49.64
2022-08-27T21:01:05.021Z,50.21
2022-08-27T21:06:07.917Z,50.45
2022-08-27T21:11:14.627Z,51.26
2022-08-27T21:16:17.069Z,51.87
2022-08-27T21:21:19.454Z,52.29
2022-08-27T21:26:23.447Z,52.04
2022-08-27T21:31:26.019Z,52.48
2022-08-27T21:36:28.707Z,52.90
2022-08-27T21:41:33.275Z,52.43
2022-08-27T21:46:39.985Z,52.73
2022-08-27T21:51:42.557Z,52.92
2022-08-27T21:56:45.115Z,53.34
2022-08-27T22:01:47.909Z,53.36
2022-08-27T22:06:54.818Z,53.48
2022-08-27T22:12:00.207Z,53.78
2022-08-27T22:17:04.601Z,54.14
2022-08-27T22:22:08.322Z,54.50
2022-08-27T22:27:10.722Z,54.25
2022-08-27T22:32:13.186Z,54.15
2022-08-27T22:37:15.646Z,54.47
2022-08-27T22:42:18.441Z,54.44
2022-08-27T22:47:20.807Z,54.71
2022-08-27T22:52:25.860Z,54.43
2022-08-27T22:57:31.078Z,54.29
2022-08-27T23:02:33.652Z,54.33
2022-08-27T23:07:36.031Z,54.41
2022-08-27T23:12:38.974Z,54.89
2022-08-27T23:17:41.698Z,54.76
2022-08-27T23:22:45.990Z,55.28
2022-08-27T23:27:48.356Z,54.83
2022-08-27T23:32:53.797Z,55.17
2022-08-27T23:37:57.762Z,55.11
2022-08-27T23:43:00.286Z,55.18
2022-08-27T23:48:02.708Z,55.87
2022-08-27T23:53:06.401Z,55.82
2022-08-27T23:58:09.895Z,55.88
